Time;durP1;ratioP1;P1;durP2;ratioP2;P2;SDS_P1;SDS_P2;PMS_P1;PMS_P2;Temp;Humidity;BMP_temperature;BMP_pressure;BME280_temperature;BME280_humidity;BME280_pressure;Samples;Min_cycle;Max_cycle;Signal;HPM_P1;HPM_P2
2022/07/17 00:00:45;;;;;;;4.15;1.50;;;19.10;42.10;;;;;;5101524;28;20051;-53
2022/07/17 00:03:14;;;;;;;2.83;1.42;;;19.10;42.20;;;;;;5103859;28;20055;-57
2022/07/17 00:05:42;;;;;;;3.88;1.50;;;19.00;42.20;;;;;;5099827;28;20058;-55
2022/07/17 00:08:10;;;;;;;2.20;1.10;;;18.90;42.30;;;;;;5101377;28;20058;-54
2022/07/17 00:10:39;;;;;;;2.97;1.33;;;18.90;42.50;;;;;;5102953;28;20079;-54
2022/07/17 00:13:07;;;;;;;3.35;1.42;;;18.90;42.60;;;;;;5102793;28;20052;-52
2022/07/17 00:15:36;;;;;;;3.28;1.65;;;18.80;43.10;;;;;;5099719;27;20047;-56
2022/07/17 00:18:06;;;;;;;4.63;1.50;;;18.80;42.60;;;;;;5100925;28;20056;-54
2022/07/17 00:20:34;;;;;;;5.38;1.38;;;18.70;42.60;;;;;;5103990;28;20054;-52
2022/07/17 00:23:02;;;;;;;2.65;0.90;;;18.70;42.60;;;;;;5103917;27;20059;-51
2022/07/17 00:25:32;;;;;;;2.55;1.10;;;18.70;42.80;;;;;;5100895;28;20059;-52
2022/07/17 00:27:59;;;;;;;3.47;1.13;;;18.60;42.80;;;;;;5100353;27;20254;-54
2022/07/17 00:30:27;;;;;;;1.98;0.80;;;18.60;42.90;;;;;;5100922;28;20216;-55
2022/07/17 00:32:54;;;;;;;4.38;1.20;;;18.50;43.00;;;;;;5102781;28;20047;-51
2022/07/17 00:35:24;;;;;;;1.42;0.93;;;18.50;43.00;;;;;;5099515;28;20051;-57
2022/07/17 00:37:51;;;;;;;2.88;1.33;;;18.40;43.10;;;;;;5102125;28;20059;-53
2022/07/17 00:40:21;;;;;;;2.97;1.20;;;18.40;43.70;;;;;;5102506;28;20059;-49
2022/07/17 00:42:49;;;;;;;2.38;0.95;;;18.30;43.20;;;;;;5101429;28;20061;-56
2022/07/17 00:45:18;;;;;;;5.38;1.13;;;18.30;43.20;;;;;;5101822;28;20062;-55
2022/07/17 00:47:55;;;;;;;5.68;0.98;;;18.30;43.40;;;;;;5098000;28;20055;-54
2022/07/17 00:50:25;;;;;;;2.40;1.10;;;18.30;43.70;;;;;;5099359;28;20062;-52
2022/07/17 00:52:53;;;;;;;2.20;0.70;;;18.20;43.60;;;;;;5101888;28;20423;-52
2022/07/17 00:55:21;;;;;;;2.28;1.10;;;18.20;43.70;;;;;;5102658;28;20055;-55
2022/07/17 00:57:50;;;;;;;3.13;0.88;;;18.20;43.70;;;;;;5100619;28;20060;-49
2022/07/17 01:00:18;;;;;;;2.58;1.10;;;18.10;43.80;;;;;;5101104;27;20415;-49
2022/07/17 01:02:48;;;;;;;3.70;1.20;;;18.10;43.90;;;;;;5099332;28;20055;-51
2022/07/17 01:05:16;;;;;;;5.28;1.20;;;18.10;43.90;;;;;;5102117;28;20062;-54
2022/07/17 01:07:45;;;;;;;5.18;1.40;;;18.10;44.30;;;;;;5097897;28;20541;-51
2022/07/17 01:10:14;;;;;;;2.58;0.98;;;18.10;43.90;;;;;;5100112;28;20051;-53
2022/07/17 01:12:41;;;;;;;1.58;0.85;;;18.00;44.00;;;;;;5102185;28;20487;-53
2022/07/17 01:15:11;;;;;;;2.42;1.02;;;18.00;44.00;;;;;;5100018;28;20047;-54
2022/07/17 01:17:39;;;;;;;1.95;0.90;;;18.00;44.10;;;;;;5097795;28;20063;-57
2022/07/17 01:20:08;;;;;;;4.22;1.10;;;17.90;44.10;;;;;;5101486;28;20055;-52
2022/07/17 01:22:42;;;;;;;3.08;1.20;;;17.90;44.10;;;;;;5101374;28;20047;-54
2022/07/17 01:25:10;;;;;;;3.22;1.10;;;17.90;44.30;;;;;;5102097;28;20055;-50
2022/07/17 01:27:38;;;;;;;3.15;1.13;;;17.90;44.20;;;;;;5099665;28;20047;-53
2022/07/17 01:30:08;;;;;;;2.50;1.10;;;17.90;44.30;;;;;;5100109;28;20062;-53
2022/07/17 01:32:38;;;;;;;4.35;1.10;;;17.80;44.30;;;;;;5100901;28;20051;-52
2022/07/17 01:35:07;;;;;;;4.90;1.58;;;17.80;44.30;;;;;;5101363;28;20074;-52
2022/07/17 01:40:13;;;;;;;2.42;1.45;;;17.80;44.40;;;;;;5103841;27;20047;-54
2022/07/17 01:42:42;;;;;;;3.15;1.10;;;17.70;44.50;;;;;;5101521;28;20063;-54
2022/07/17 01:45:11;;;;;;;1.60;0.93;;;17.70;44.60;;;;;;5101402;28;20051;-53
2022/07/17 01:47:38;;;;;;;2.42;0.90;;;17.70;44.70;;;;;;5096773;28;20048;-53
2022/07/17 01:50:07;;;;;;;2.75;1.13;;;17.70;44.70;;;;;;5100696;28;20058;-49
2022/07/17 01:52:37;;;;;;;3.30;1.15;;;17.60;44.70;;;;;;5099792;28;20047;-53
2022/07/17 01:55:05;;;;;;;2.08;0.95;;;17.60;44.90;;;;;;5102501;28;20045;-56
2022/07/17 01:57:34;;;;;;;2.60;1.02;;;17.60;44.80;;;;;;5100034;28;20059;-55
2022/07/17 02:00:02;;;;;;;1.60;0.85;;;17.50;44.80;;;;;;5100276;28;20066;-51
2022/07/17 02:02:29;;;;;;;2.58;0.95;;;17.50;44.80;;;;;;5102194;28;20063;-55
2022/07/17 02:04:57;;;;;;;2.20;1.15;;;17.50;44.90;;;;;;5103007;28;20051;-56
2022/07/17 02:07:24;;;;;;;3.72;1.02;;;17.50;44.90;;;;;;5101369;28;20047;-55
2022/07/17 02:09:52;;;;;;;2.65;1.08;;;17.40;44.90;;;;;;5105472;27;20062;-52
2022/07/17 02:12:19;;;;;;;4.63;1.05;;;17.40;45.00;;;;;;5102468;28;20059;-53
2022/07/17 02:14:48;;;;;;;2.63;1.13;;;17.40;45.10;;;;;;5105034;28;20076;-53
2022/07/17 02:17:16;;;;;;;1.73;0.90;;;17.30;45.20;;;;;;5098475;28;20052;-53
2022/07/17 02:19:43;;;;;;;2.50;1.00;;;17.30;45.20;;;;;;5106432;28;20048;-51
2022/07/17 02:22:10;;;;;;;7.28;1.05;;;17.30;45.20;;;;;;5105030;28;20384;-52
2022/07/17 02:24:38;;;;;;;2.25;0.95;;;17.20;45.30;;;;;;5106204;28;20063;-51
2022/07/17 02:27:05;;;;;;;3.13;0.95;;;17.20;45.30;;;;;;5102036;28;20552;-51
2022/07/17 02:29:33;;;;;;;2.55;1.10;;;17.20;45.40;;;;;;5103207;28;20051;-54
2022/07/17 02:32:02;;;;;;;2.70;1.00;;;17.10;45.40;;;;;;5103730;28;20060;-53
2022/07/17 02:34:29;;;;;;;7.18;1.23;;;17.10;45.50;;;;;;5104858;27;20051;-53
2022/07/17 02:36:56;;;;;;;1.52;0.90;;;17.10;45.50;;;;;;5101930;28;20050;-52
2022/07/17 02:39:24;;;;;;;2.58;1.00;;;17.10;45.60;;;;;;5104335;28;20062;-53
2022/07/17 02:41:51;;;;;;;3.63;1.10;;;17.00;45.70;;;;;;5104723;28;20419;-54
2022/07/17 02:44:19;;;;;;;6.00;1.38;;;17.00;45.80;;;;;;5105452;28;20055;-49
2022/07/17 02:46:46;;;;;;;3.80;1.55;;;17.00;45.80;;;;;;5099948;28;20056;-53
2022/07/17 02:49:15;;;;;;;3.75;1.08;;;17.00;45.90;;;;;;5105301;28;20499;-51
2022/07/17 02:51:42;;;;;;;2.15;1.05;;;16.90;45.90;;;;;;5103853;28;20418;-52
2022/07/17 02:54:10;;;;;;;1.95;0.98;;;16.90;46.00;;;;;;5105522;28;21012;-50
2022/07/17 02:56:37;;;;;;;2.05;0.98;;;16.90;46.00;;;;;;5102208;28;20058;-52
2022/07/17 02:59:05;;;;;;;2.95;0.95;;;16.90;46.10;;;;;;5102361;28;20047;-48
2022/07/17 03:01:32;;;;;;;4.18;1.00;;;16.90;46.20;;;;;;5100650;28;20056;-49
2022/07/17 03:04:00;;;;;;;4.63;1.42;;;16.80;46.20;;;;;;5097511;28;20048;-51
2022/07/17 03:06:29;;;;;;;2.70;1.20;;;16.80;46.30;;;;;;5099297;28;20487;-54
2022/07/17 03:08:57;;;;;;;3.67;1.23;;;16.80;46.40;;;;;;5102592;28;20059;-53
2022/07/17 03:11:24;;;;;;;1.40;0.80;;;16.80;46.40;;;;;;5104086;28;20403;-55
2022/07/17 03:13:52;;;;;;;3.00;1.13;;;16.80;46.50;;;;;;5094440;28;20051;-55
2022/07/17 03:16:19;;;;;;;4.72;1.25;;;16.70;46.50;;;;;;5098479;28;20051;-52
2022/07/17 03:18:46;;;;;;;3.45;0.90;;;16.70;46.50;;;;;;5102900;28;20056;-52
2022/07/17 03:21:14;;;;;;;4.20;1.20;;;16.70;46.50;;;;;;5103644;28;20063;-50
2022/07/17 03:23:43;;;;;;;2.88;1.00;;;16.70;46.60;;;;;;5105383;27;20059;-49
2022/07/17 03:26:10;;;;;;;4.97;2.05;;;16.70;46.70;;;;;;5100376;27;20047;-52
2022/07/17 03:28:38;;;;;;;5.57;2.20;;;16.60;46.70;;;;;;5102422;28;20051;-51
2022/07/17 03:31:07;;;;;;;3.88;2.00;;;16.60;46.70;;;;;;5104064;28;20058;-53
2022/07/17 03:33:35;;;;;;;2.78;1.27;;;16.60;46.80;;;;;;5102908;28;20059;-53
2022/07/17 03:36:02;;;;;;;3.65;1.67;;;16.60;46.80;;;;;;5104289;28;20051;-51
2022/07/17 03:38:30;;;;;;;1.60;0.82;;;16.60;46.80;;;;;;5101173;27;20051;-53
2022/07/17 03:40:59;;;;;;;8.23;1.02;;;16.60;46.90;;;;;;5104401;28;20051;-51
2022/07/17 03:43:27;;;;;;;4.82;1.40;;;16.50;46.80;;;;;;5102867;28;20047;-53
2022/07/17 03:45:54;;;;;;;3.28;1.20;;;16.50;46.80;;;;;;5103824;28;20055;-52
2022/07/17 03:48:21;;;;;;;1.83;0.98;;;16.50;46.80;;;;;;5104113;28;20047;-54
2022/07/17 03:50:49;;;;;;;4.75;1.35;;;16.50;46.90;;;;;;5105247;28;20055;-53
2022/07/17 03:53:17;;;;;;;2.22;1.05;;;16.40;46.90;;;;;;5104961;27;20827;-52
2022/07/17 03:55:44;;;;;;;2.15;1.20;;;16.40;47.00;;;;;;5104405;28;20407;-54
2022/07/17 03:58:13;;;;;;;3.30;1.30;;;16.40;47.00;;;;;;5103929;27;20066;-52
2022/07/17 04:00:40;;;;;;;4.78;1.33;;;16.30;47.10;;;;;;5102851;28;20047;-50
2022/07/17 04:03:08;;;;;;;7.70;1.70;;;16.30;47.10;;;;;;5103437;28;20064;-52
2022/07/17 04:05:35;;;;;;;4.90;1.23;;;16.30;47.20;;;;;;5103869;28;20055;-51
2022/07/17 04:08:03;;;;;;;3.13;1.23;;;16.30;47.20;;;;;;5104579;28;20071;-53
2022/07/17 04:10:30;;;;;;;6.45;2.85;;;16.30;47.20;;;;;;5104517;28;20060;-47
2022/07/17 04:12:57;;;;;;;10.82;3.40;;;16.30;47.30;;;;;;5102820;28;20526;-50
2022/07/17 04:18:11;;;;;;;5.65;1.70;;;16.20;48.00;;;;;;5107856;27;20051;-48
2022/07/17 04:20:39;;;;;;;7.18;1.55;;;16.20;47.50;;;;;;5103310;27;20055;-49
2022/07/17 04:23:06;;;;;;;2.70;1.17;;;16.20;47.60;;;;;;5102164;28;20067;-47
2022/07/17 04:25:34;;;;;;;5.35;1.30;;;16.20;47.70;;;;;;5102418;28;20403;-52
2022/07/17 04:28:01;;;;;;;5.43;1.60;;;16.10;47.70;;;;;;5102385;28;20052;-47
2022/07/17 04:30:30;;;;;;;6.32;1.67;;;16.10;47.80;;;;;;5103297;28;20055;-48
2022/07/17 04:32:58;;;;;;;8.27;2.65;;;16.10;48.00;;;;;;5102320;28;20044;-48
2022/07/17 04:35:26;;;;;;;4.22;2.00;;;16.10;48.10;;;;;;5103633;28;20062;-46
2022/07/17 04:37:54;;;;;;;10.80;4.65;;;16.10;48.00;;;;;;5096960;28;21459;-47
2022/07/17 04:40:21;;;;;;;4.15;2.08;;;16.10;48.10;;;;;;5103474;28;20051;-48
2022/07/17 04:42:49;;;;;;;4.68;1.40;;;16.10;48.10;;;;;;5100506;28;20419;-49
2022/07/17 04:45:16;;;;;;;4.45;1.50;;;16.10;48.20;;;;;;5103765;28;20055;-47
2022/07/17 04:47:45;;;;;;;5.95;1.42;;;16.10;48.30;;;;;;5083197;28;20053;-46
2022/07/17 04:50:14;;;;;;;5.93;1.90;;;16.10;48.30;;;;;;5040837;28;20045;-48
2022/07/17 04:52:41;;;;;;;3.00;1.30;;;16.10;48.20;;;;;;5040285;28;20416;-50
2022/07/17 04:55:09;;;;;;;4.20;1.30;;;16.00;48.30;;;;;;5042736;28;20053;-49
2022/07/17 04:57:37;;;;;;;4.97;1.88;;;16.10;48.40;;;;;;5041615;28;20504;-50
2022/07/17 05:00:06;;;;;;;6.25;2.08;;;16.10;48.60;;;;;;5042750;28;20523;-51
2022/07/17 05:02:33;;;;;;;4.03;1.60;;;16.10;48.80;;;;;;5041543;28;20068;-52
2022/07/17 05:05:03;;;;;;;2.03;1.33;;;16.10;48.80;;;;;;5042651;28;20064;-47
2022/07/17 05:07:30;;;;;;;4.25;2.05;;;16.10;48.90;;;;;;5037160;28;20049;-52
2022/07/17 05:09:58;;;;;;;4.50;1.45;;;16.10;49.00;;;;;;5040713;28;20052;-46
2022/07/17 05:12:25;;;;;;;2.67;1.52;;;16.10;49.20;;;;;;5038056;28;20056;-47
2022/07/17 05:14:53;;;;;;;3.03;1.75;;;16.10;49.30;;;;;;5038941;28;20061;-46
2022/07/17 05:17:21;;;;;;;2.35;1.27;;;16.10;49.50;;;;;;5038428;28;20068;-52
2022/07/17 05:19:48;;;;;;;3.17;1.63;;;16.20;49.60;;;;;;5042863;28;20056;-48
2022/07/17 05:22:17;;;;;;;4.50;1.80;;;16.20;49.60;;;;;;5043425;28;20150;-46
2022/07/17 05:24:44;;;;;;;5.43;1.55;;;16.20;49.60;;;;;;5042598;28;20052;-46
2022/07/17 05:27:12;;;;;;;3.72;1.38;;;16.20;49.60;;;;;;5038707;28;20053;-52
2022/07/17 05:29:39;;;;;;;2.60;1.52;;;16.20;49.60;;;;;;5041953;28;20053;-47
2022/07/17 05:32:07;;;;;;;6.15;1.60;;;16.30;49.80;;;;;;5042023;28;20056;-49
2022/07/17 05:34:34;;;;;;;4.93;1.38;;;16.30;49.80;;;;;;5042486;28;20065;-51
2022/07/17 05:37:02;;;;;;;3.38;1.42;;;16.30;50.00;;;;;;5040703;28;20412;-47
2022/07/17 05:39:30;;;;;;;2.65;1.35;;;16.30;50.00;;;;;;5042320;28;20057;-46
2022/07/17 05:41:58;;;;;;;6.40;1.73;;;16.40;50.10;;;;;;5039145;28;20044;-48
2022/07/17 05:44:25;;;;;;;3.60;1.48;;;16.40;50.20;;;;;;5041859;28;20405;-51
2022/07/17 05:46:54;;;;;;;6.10;2.25;;;16.50;50.40;;;;;;5039266;28;20044;-49
2022/07/17 05:49:21;;;;;;;10.32;2.20;;;16.50;50.60;;;;;;5042093;28;20096;-47
2022/07/17 05:51:49;;;;;;;7.30;2.13;;;16.50;50.80;;;;;;5042031;28;20057;-46
2022/07/17 05:54:16;;;;;;;6.80;2.33;;;16.60;50.80;;;;;;5041889;28;20416;-47
2022/07/17 05:56:45;;;;;;;3.17;1.90;;;16.60;51.00;;;;;;5039601;28;20225;-49
2022/07/17 05:59:14;;;;;;;5.53;1.98;;;16.70;51.10;;;;;;5041568;28;20069;-49
2022/07/17 06:01:42;;;;;;;5.53;1.90;;;16.80;51.10;;;;;;5040173;28;20056;-49
2022/07/17 06:04:10;;;;;;;4.72;1.30;;;16.80;51.10;;;;;;5039938;28;20064;-47
2022/07/17 06:06:37;;;;;;;3.17;1.40;;;16.90;51.10;;;;;;5041331;28;20053;-49
2022/07/17 06:09:05;;;;;;;5.28;1.77;;;16.90;51.00;;;;;;5041896;28;20057;-46
2022/07/17 06:11:32;;;;;;;4.10;1.63;;;17.00;51.00;;;;;;5041791;28;20060;-50
2022/07/17 06:14:01;;;;;;;1.70;1.20;;;17.10;51.00;;;;;;5041216;28;21508;-50
2022/07/17 06:16:29;;;;;;;3.20;1.20;;;17.20;51.00;;;;;;5038477;28;20423;-49
2022/07/17 06:18:56;;;;;;;2.63;1.60;;;17.30;50.90;;;;;;5041647;28;20053;-47
2022/07/17 06:21:23;;;;;;;5.15;1.42;;;17.40;51.00;;;;;;5041473;28;20060;-47
2022/07/17 06:23:51;;;;;;;4.22;1.85;;;17.40;50.90;;;;;;5041875;28;20056;-49
2022/07/17 06:26:19;;;;;;;3.35;1.30;;;17.50;50.80;;;;;;5040072;28;21135;-47
2022/07/17 06:28:46;;;;;;;4.57;1.50;;;17.60;50.60;;;;;;5040521;28;20056;-50
2022/07/17 06:31:15;;;;;;;2.75;1.20;;;17.70;50.40;;;;;;5042055;28;20053;-48
2022/07/17 06:33:43;;;;;;;7.05;2.28;;;17.70;50.10;;;;;;5041521;28;20063;-47
2022/07/17 06:36:10;;;;;;;7.22;1.40;;;17.80;49.80;;;;;;5039375;28;20061;-48
2022/07/17 06:38:38;;;;;;;4.03;1.25;;;17.90;49.90;;;;;;5041689;28;20056;-51
2022/07/17 06:41:05;;;;;;;3.15;1.50;;;17.90;49.90;;;;;;5041656;28;20087;-46
2022/07/17 06:43:32;;;;;;;2.00;1.02;;;18.00;50.00;;;;;;5040568;28;20123;-52
2022/07/17 06:46:00;;;;;;;6.80;1.40;;;18.10;49.80;;;;;;5038507;28;20131;-52
2022/07/17 06:48:29;;;;;;;4.03;1.80;;;18.10;49.50;;;;;;5040310;28;20049;-49
2022/07/17 06:50:56;;;;;;;4.32;1.42;;;18.20;49.60;;;;;;5043933;28;20417;-50
2022/07/17 06:53:24;;;;;;;3.83;1.38;;;18.30;49.70;;;;;;5044771;28;20053;-49
2022/07/17 06:55:51;;;;;;;2.40;1.10;;;18.40;49.70;;;;;;5042341;28;20057;-52
2022/07/17 06:58:19;;;;;;;11.73;2.15;;;18.40;49.50;;;;;;5044593;28;20049;-49
2022/07/17 07:00:46;;;;;;;5.70;1.92;;;18.50;49.50;;;;;;5045429;28;20056;-48
2022/07/17 07:03:14;;;;;;;4.32;1.15;;;18.50;49.40;;;;;;5045509;28;20053;-50
2022/07/17 07:05:42;;;;;;;3.45;1.20;;;18.60;49.10;;;;;;5043386;28;20061;-46
2022/07/17 07:08:10;;;;;;;3.60;1.40;;;18.70;49.20;;;;;;5043379;28;20053;-52
2022/07/17 07:10:38;;;;;;;3.42;1.25;;;18.80;49.00;;;;;;5045300;28;20061;-49
2022/07/17 07:13:05;;;;;;;3.70;1.50;;;18.80;49.10;;;;;;5044426;28;20065;-47
2022/07/17 07:15:32;;;;;;;4.53;1.42;;;18.90;48.90;;;;;;5041633;28;20057;-49
2022/07/17 07:18:00;;;;;;;2.63;1.02;;;19.00;48.80;;;;;;5042191;28;20560;-50
2022/07/17 07:20:28;;;;;;;5.57;1.60;;;19.10;48.70;;;;;;5044651;28;20122;-47
2022/07/17 07:22:56;;;;;;;5.07;1.30;;;19.20;48.90;;;;;;5045042;28;20067;-47
2022/07/17 07:25:24;;;;;;;2.78;1.20;;;19.20;48.80;;;;;;5043699;28;20064;-47
2022/07/17 07:27:51;;;;;;;2.95;1.20;;;19.30;48.60;;;;;;5041677;28;20052;-49
2022/07/17 07:30:19;;;;;;;2.03;0.90;;;19.40;48.50;;;;;;5045164;28;21509;-47
2022/07/17 07:32:46;;;;;;;2.85;1.25;;;19.40;48.40;;;;;;5044567;28;20063;-47
2022/07/17 07:35:14;;;;;;;3.45;1.10;;;19.50;48.30;;;;;;5044109;28;20060;-49
2022/07/17 07:37:41;;;;;;;2.97;1.17;;;19.60;48.30;;;;;;5042065;28;20080;-48
2022/07/17 07:40:12;;;;;;;3.13;1.10;;;19.60;48.10;;;;;;5044469;28;20049;-48
2022/07/17 07:42:40;;;;;;;3.38;1.20;;;19.80;48.60;;;;;;5044351;28;20452;-47
2022/07/17 07:45:09;;;;;;;5.57;1.45;;;19.80;47.80;;;;;;5044134;28;20060;-53
2022/07/17 07:47:42;;;;;;;3.00;1.23;;;19.90;47.40;;;;;;5039920;28;20503;-49
2022/07/17 07:50:11;;;;;;;6.88;1.30;;;20.00;47.40;;;;;;5044220;28;20057;-48
2022/07/17 07:52:39;;;;;;;3.35;1.10;;;20.10;47.50;;;;;;5044287;28;20064;-49
2022/07/17 07:55:07;;;;;;;2.83;0.93;;;20.20;47.00;;;;;;5044105;28;20783;-52
2022/07/17 07:57:36;;;;;;;3.72;1.02;;;20.30;46.80;;;;;;5041204;28;20053;-53
2022/07/17 08:00:05;;;;;;;2.72;1.25;;;20.40;46.60;;;;;;5043599;28;20049;-52
2022/07/17 08:02:33;;;;;;;3.80;1.30;;;20.40;46.80;;;;;;5042920;28;20061;-48
2022/07/17 08:05:00;;;;;;;5.68;1.00;;;20.50;46.10;;;;;;5043900;28;20060;-50
2022/07/17 08:07:28;;;;;;;2.13;0.90;;;20.60;45.80;;;;;;5039982;28;20481;-49
2022/07/17 08:09:56;;;;;;;3.92;0.93;;;20.70;45.80;;;;;;5043230;28;20060;-50
2022/07/17 08:12:24;;;;;;;1.40;0.77;;;20.80;45.60;;;;;;5044055;28;20083;-47
2022/07/17 08:14:53;;;;;;;2.45;1.10;;;20.90;45.50;;;;;;5041865;28;20053;-56
2022/07/17 08:17:20;;;;;;;2.42;1.00;;;20.90;45.00;;;;;;5040803;28;20056;-46
2022/07/17 08:19:48;;;;;;;3.97;0.70;;;21.10;44.70;;;;;;5042510;28;20060;-50
2022/07/17 08:22:15;;;;;;;3.95;1.40;;;21.20;44.70;;;;;;5044155;28;20061;-50
2022/07/17 08:24:43;;;;;;;4.72;1.08;;;21.20;43.60;;;;;;5042676;28;20053;-51
2022/07/17 08:27:10;;;;;;;3.45;0.93;;;21.30;43.40;;;;;;5040516;28;20055;-51
2022/07/17 08:29:37;;;;;;;3.38;1.17;;;21.40;43.30;;;;;;5041853;28;20045;-53
2022/07/17 08:32:09;;;;;;;4.78;1.27;;;21.50;42.80;;;;;;5033420;28;20053;-57
2022/07/17 08:34:36;;;;;;;2.25;0.93;;;21.50;42.70;;;;;;5038778;28;20053;-53
2022/07/17 08:37:04;;;;;;;8.10;1.05;;;21.60;42.50;;;;;;5040298;28;20060;-50
2022/07/17 08:39:31;;;;;;;8.18;1.67;;;21.70;40.50;;;;;;5040692;28;20060;-49
2022/07/17 08:41:59;;;;;;;3.78;1.00;;;21.80;40.70;;;;;;5038525;28;20053;-56
2022/07/17 08:44:26;;;;;;;2.53;0.90;;;21.90;41.10;;;;;;5039839;28;20057;-49
2022/07/17 08:46:55;;;;;;;2.38;0.70;;;21.90;41.20;;;;;;5037486;28;20063;-53
2022/07/17 08:49:25;;;;;;;3.60;1.52;;;22.00;40.90;;;;;;5042683;28;20063;-49
2022/07/17 08:51:55;;;;;;;8.15;1.10;;;22.10;39.80;;;;;;5038426;28;20502;-52
2022/07/17 08:54:23;;;;;;;3.55;1.02;;;22.10;39.90;;;;;;5037077;28;20053;-53
2022/07/17 08:56:51;;;;;;;7.65;1.50;;;22.20;39.90;;;;;;5040947;28;20497;-47
2022/07/17 08:59:18;;;;;;;4.57;1.17;;;22.30;39.20;;;;;;5041880;28;20056;-49
2022/07/17 09:01:46;;;;;;;5.75;1.20;;;22.30;38.40;;;;;;5040011;28;20057;-52
2022/07/17 09:04:13;;;;;;;2.97;0.98;;;22.40;38.80;;;;;;5038464;28;20059;-52
2022/07/17 09:06:42;;;;;;;4.13;0.85;;;22.40;38.90;;;;;;5038059;28;20057;-50
2022/07/17 09:09:12;;;;;;;2.90;0.90;;;22.50;38.70;;;;;;5041983;28;20049;-48
2022/07/17 09:11:44;;;;;;;7.00;1.08;;;22.50;39.10;;;;;;5036980;28;20546;-49
2022/07/17 09:14:12;;;;;;;2.20;0.73;;;22.60;39.20;;;;;;5037924;28;20056;-53
2022/07/17 09:16:50;;;;;;;3.70;1.08;;;22.60;39.00;;;;;;5037512;28;20065;-51
2022/07/17 09:19:28;;;;;;;3.10;1.20;;;22.70;38.70;;;;;;5039368;28;20486;-51
2022/07/17 09:22:07;;;;;;;5.35;0.82;;;22.70;37.90;;;;;;5039520;28;20408;-49
2022/07/17 09:24:42;;;;;;;3.45;0.90;;;22.80;37.30;;;;;;5041269;28;20060;-53
2022/07/17 09:27:12;;;;;;;4.63;1.20;;;22.80;37.40;;;;;;5033610;28;20052;-51
2022/07/17 09:29:55;;;;;;;1.65;0.73;;;22.90;37.00;;;;;;5039547;28;20065;-51
2022/07/17 09:32:25;;;;;;;2.40;1.00;;;23.00;36.70;;;;;;5040641;28;20492;-48
2022/07/17 09:34:54;;;;;;;4.28;0.93;;;23.00;37.00;;;;;;5037697;28;20060;-53
2022/07/17 09:37:25;;;;;;;2.03;0.82;;;23.10;37.30;;;;;;5038827;28;20060;-55
2022/07/17 09:39:53;;;;;;;6.88;1.00;;;23.10;37.40;;;;;;5039737;28;20048;-50
2022/07/17 09:42:29;;;;;;;3.42;0.93;;;23.20;37.50;;;;;;5038689;28;20063;-49
2022/07/17 09:44:59;;;;;;;4.55;1.15;;;23.20;37.50;;;;;;5039682;28;20579;-48
2022/07/17 09:47:28;;;;;;;2.90;0.82;;;23.30;37.50;;;;;;5034288;28;20049;-47
2022/07/17 09:49:57;;;;;;;3.78;1.23;;;23.40;37.70;;;;;;5035433;28;20055;-53
2022/07/17 09:52:29;;;;;;;3.45;1.15;;;23.40;37.30;;;;;;5042161;28;20061;-52
2022/07/17 09:54:58;;;;;;;2.42;1.00;;;23.40;36.90;;;;;;5041856;28;20056;-50
2022/07/17 09:57:27;;;;;;;3.25;1.00;;;23.50;37.20;;;;;;5035778;28;20057;-48
2022/07/17 09:59:55;;;;;;;3.28;0.90;;;23.50;37.20;;;;;;5040003;28;20044;-49
2022/07/17 10:02:24;;;;;;;5.78;1.63;;;23.60;36.70;;;;;;5037926;28;20052;-48
2022/07/17 10:04:53;;;;;;;4.85;1.17;;;23.60;35.60;;;;;;5041061;28;20064;-50
2022/07/17 10:07:21;;;;;;;3.42;1.08;;;23.60;35.40;;;;;;5039929;28;20068;-49
2022/07/17 10:09:50;;;;;;;4.47;1.08;;;23.60;36.00;;;;;;5039676;28;20049;-48
2022/07/17 10:12:18;;;;;;;8.18;1.05;;;23.70;36.10;;;;;;5040837;28;20064;-49
2022/07/17 10:14:48;;;;;;;2.97;1.13;;;23.70;35.20;;;;;;5039456;28;20056;-51
2022/07/17 10:17:23;;;;;;;2.90;0.85;;;23.70;34.40;;;;;;5035360;28;20052;-47
2022/07/17 10:19:53;;;;;;;3.85;1.20;;;23.70;34.80;;;;;;5039519;28;20045;-52
2022/07/17 10:22:22;;;;;;;6.35;1.10;;;23.80;35.40;;;;;;5035780;28;21064;-57
2022/07/17 10:24:53;;;;;;;1.77;0.70;;;23.80;35.10;;;;;;5044874;28;20079;-49
2022/07/17 10:27:23;;;;;;;2.97;0.90;;;23.80;35.20;;;;;;5041511;28;20056;-51
2022/07/17 10:30:01;;;;;;;2.53;0.75;;;23.90;34.90;;;;;;5045377;28;20421;-50
2022/07/17 10:32:29;;;;;;;6.03;0.80;;;24.00;34.60;;;;;;5043272;28;20428;-46
2022/07/17 10:35:01;;;;;;;3.55;0.93;;;24.00;33.80;;;;;;5044479;28;20068;-50
2022/07/17 10:37:33;;;;;;;1.52;0.70;;;24.00;32.90;;;;;;5041050;28;20053;-47
2022/07/17 10:40:12;;;;;;;5.57;1.10;;;24.10;33.80;;;;;;5042939;28;20052;-50
2022/07/17 10:42:41;;;;;;;1.77;1.00;;;24.10;33.80;;;;;;5043483;28;20053;-53
2022/07/17 10:45:12;;;;;;;2.35;0.73;;;24.20;33.70;;;;;;5044589;28;20057;-50
2022/07/17 10:47:48;;;;;;;7.18;1.35;;;24.20;34.20;;;;;;5039008;28;20055;-47
2022/07/17 10:50:16;;;;;;;2.58;1.08;;;24.30;33.40;;;;;;5045216;28;20353;-47
2022/07/17 10:52:44;;;;;;;3.75;1.38;;;24.30;34.00;;;;;;5044887;28;20090;-47
2022/07/17 10:55:22;;;;;;;5.57;0.98;;;24.40;33.90;;;;;;5045869;28;20123;-47
2022/07/17 10:57:50;;;;;;;4.00;1.08;;;24.40;33.90;;;;;;5042051;28;20060;-53
2022/07/17 11:00:18;;;;;;;3.55;1.20;;;24.40;32.80;;;;;;5043470;28;20377;-54
2022/07/17 11:02:46;;;;;;;4.60;1.55;;;24.40;33.50;;;;;;5044039;28;20056;-52
2022/07/17 11:05:15;;;;;;;6.40;1.25;;;24.50;33.10;;;;;;5043867;28;20052;-47
2022/07/17 11:07:58;;;;;;;2.90;0.85;;;24.50;33.40;;;;;;5039426;28;20049;-47
2022/07/17 11:10:29;;;;;;;3.83;0.93;;;24.60;33.40;;;;;;5045336;28;20413;-53
2022/07/17 11:13:09;;;;;;;4.57;1.10;;;24.60;32.30;;;;;;5042236;28;20619;-52
2022/07/17 11:15:40;;;;;;;3.63;0.90;;;24.60;32.60;;;;;;5039524;28;20060;-52
2022/07/17 11:18:12;;;;;;;3.42;0.90;;;24.70;32.20;;;;;;5042793;28;20056;-49
2022/07/17 11:20:51;;;;;;;4.70;1.08;;;24.60;32.20;;;;;;5044596;28;20055;-49
2022/07/17 11:23:23;;;;;;;1.90;0.80;;;24.70;33.00;;;;;;5043036;28;20416;-50
2022/07/17 11:25:57;;;;;;;3.75;0.85;;;24.70;33.10;;;;;;5041062;28;20057;-52
2022/07/17 11:28:36;;;;;;;2.70;0.80;;;24.80;33.10;;;;;;5041424;28;20060;-52
2022/07/17 11:31:15;;;;;;;4.32;1.10;;;24.90;33.30;;;;;;5041609;28;20494;-54
2022/07/17 11:33:48;;;;;;;6.43;1.10;;;24.90;32.70;;;;;;5043171;28;20053;-61
2022/07/17 11:36:25;;;;;;;3.80;0.70;;;25.00;32.60;;;;;;5040952;28;20493;-57
2022/07/17 11:38:54;;;;;;;2.53;0.90;;;25.10;32.80;;;;;;5043531;28;20516;-51
2022/07/17 11:41:32;;;;;;;2.25;0.60;;;25.10;32.90;;;;;;5043916;28;20131;-57
2022/07/17 11:44:01;;;;;;;2.17;0.93;;;25.20;31.20;;;;;;5042505;28;20053;-49
2022/07/17 11:46:30;;;;;;;4.47;0.90;;;25.20;31.10;;;;;;5035776;28;20083;-56
2022/07/17 11:48:57;;;;;;;3.42;0.93;;;25.20;30.30;;;;;;5043244;28;20049;-50
2022/07/17 11:51:35;;;;;;;3.95;1.13;;;25.30;32.10;;;;;;5042397;28;20440;-57
2022/07/17 11:54:05;;;;;;;5.38;1.02;;;25.30;30.50;;;;;;5042971;28;20044;-56
2022/07/17 11:56:35;;;;;;;3.85;1.00;;;25.40;30.00;;;;;;5040011;28;20068;-50
2022/07/17 11:59:03;;;;;;;3.80;0.95;;;25.40;30.60;;;;;;5042552;28;20052;-50
2022/07/17 12:01:39;;;;;;;1.38;0.77;;;25.50;30.40;;;;;;5041971;28;20053;-52
2022/07/17 12:04:08;;;;;;;1.75;0.70;;;25.50;31.00;;;;;;5044026;28;20052;-53
2022/07/17 12:06:36;;;;;;;12.95;1.33;;;25.60;31.10;;;;;;5036922;28;20416;-53
2022/07/17 12:09:04;;;;;;;2.72;0.65;;;25.70;31.00;;;;;;5043936;28;20064;-51
2022/07/17 12:11:32;;;;;;;2.22;0.90;;;25.70;31.20;;;;;;5043384;28;20075;-53
2022/07/17 12:14:07;;;;;;;2.38;0.77;;;25.80;29.80;;;;;;5042650;28;20057;-48
2022/07/17 12:16:37;;;;;;;2.47;0.90;;;25.80;30.20;;;;;;5036592;28;20053;-52
2022/07/17 12:19:10;;;;;;;4.75;0.98;;;25.80;29.50;;;;;;5043579;28;20053;-52
2022/07/17 12:21:55;;;;;;;2.72;0.90;;;25.90;28.70;;;;;;5041538;28;20060;-53
2022/07/17 12:24:26;;;;;;;1.50;0.70;;;25.90;27.80;;;;;;5039444;28;20064;-53
2022/07/17 12:26:54;;;;;;;2.95;0.77;;;26.00;28.00;;;;;;5038753;28;20057;-52
2022/07/17 12:29:24;;;;;;;2.75;0.88;;;26.00;28.40;;;;;;5042140;28;20489;-52
2022/07/17 12:32:05;;;;;;;2.42;0.68;;;26.10;28.60;;;;;;5040455;28;20493;-52
2022/07/17 12:34:33;;;;;;;2.42;0.70;;;26.20;28.70;;;;;;5039238;28;20056;-54
2022/07/17 12:37:01;;;;;;;4.68;0.80;;;26.30;29.00;;;;;;5038312;28;20072;-55
2022/07/17 12:39:28;;;;;;;2.50;0.80;;;26.40;28.20;;;;;;5043084;28;20053;-51
2022/07/17 12:41:56;;;;;;;2.88;0.98;;;26.40;28.30;;;;;;5042139;28;20049;-55
2022/07/17 12:44:25;;;;;;;4.72;0.95;;;26.40;27.80;;;;;;5041627;28;20057;-56
2022/07/17 12:46:52;;;;;;;2.47;0.85;;;26.40;27.50;;;;;;5033619;28;20751;-54
2022/07/17 12:49:20;;;;;;;3.17;0.75;;;26.40;27.80;;;;;;5033469;28;20480;-55
2022/07/17 12:51:47;;;;;;;3.88;0.88;;;26.50;27.90;;;;;;5040734;28;20060;-56
2022/07/17 12:54:15;;;;;;;2.53;0.80;;;26.50;27.80;;;;;;5040163;28;20052;-51
2022/07/17 12:56:43;;;;;;;2.90;1.00;;;26.50;27.40;;;;;;5040616;28;20052;-55
2022/07/17 12:59:10;;;;;;;4.40;0.57;;;26.60;27.50;;;;;;5038622;28;20052;-52